sensor_id;sensor_type;location;lat;lon;timestamp;temperature;humidity
16929;DHT22;8581;47.334;11.190;2023-07-28T00:01:17;9.10;99.90
16929;DHT22;8581;47.334;11.190;2023-07-28T00:03:49;9.10;99.90
16929;DHT22;8581;47.334;11.190;2023-07-28T00:06:20;9.30;99.90
16929;DHT22;8581;47.334;11.190;2023-07-28T00:08:52;9.20;99.90
16929;DHT22;8581;47.334;11.190;2023-07-28T00:11:23;9.20;99.90
16929;DHT22;8581;47.334;11.190;2023-07-28T00:13:55;9.10;99.90
16929;DHT22;8581;47.334;11.190;2023-07-28T00:16:27;9.20;99.90
16929;DHT22;8581;47.334;11.190;2023-07-28T00:18:58;9.10;99.90
16929;DHT22;8581;47.334;11.190;2023-07-28T00:21:30;9.10;99.90
16929;DHT22;8581;47.334;11.190;2023-07-28T00:24:02;9.10;99.90
16929;DHT22;8581;47.334;11.190;2023-07-28T00:26:33;9.10;99.90
16929;DHT22;8581;47.334;11.190;2023-07-28T00:29:05;8.80;99.90
16929;DHT22;8581;47.334;11.190;2023-07-28T00:31:36;8.80;99.90
16929;DHT22;8581;47.334;11.190;2023-07-28T00:34:08;8.90;99.90
16929;DHT22;8581;47.334;11.190;2023-07-28T00:36:40;8.90;99.90
16929;DHT22;8581;47.334;11.190;2023-07-28T00:39:11;9.00;99.90
16929;DHT22;8581;47.334;11.190;2023-07-28T00:41:43;9.00;99.90
16929;DHT22;8581;47.334;11.190;2023-07-28T00:44:14;9.10;99.90
16929;DHT22;8581;47.334;11.190;2023-07-28T00:46:46;9.00;99.90
16929;DHT22;8581;47.334;11.190;2023-07-28T00:49:18;9.10;99.90
16929;DHT22;8581;47.334;11.190;2023-07-28T00:51:49;9.00;99.90
16929;DHT22;8581;47.334;11.190;2023-07-28T00:54:21;8.90;99.90
16929;DHT22;8581;47.334;11.190;2023-07-28T00:56:52;8.80;99.90
16929;DHT22;8581;47.334;11.190;2023-07-28T00:59:24;8.70;99.90
16929;DHT22;8581;47.334;11.190;2023-07-28T01:01:55;8.70;99.90
16929;DHT22;8581;47.334;11.190;2023-07-28T01:04:27;8.70;99.90
16929;DHT22;8581;47.334;11.190;2023-07-28T01:07:40;8.80;99.90
16929;DHT22;8581;47.334;11.190;2023-07-28T01:09:57;8.70;99.90
16929;DHT22;8581;47.334;11.190;2023-07-28T01:12:24;8.70;99.90
16929;DHT22;8581;47.334;11.190;2023-07-28T01:14:56;8.80;99.90
16929;DHT22;8581;47.334;11.190;2023-07-28T01:17:28;8.80;99.90
16929;DHT22;8581;47.334;11.190;2023-07-28T01:19:59;8.70;99.90
16929;DHT22;8581;47.334;11.190;2023-07-28T01:25:36;8.50;99.90
16929;DHT22;8581;47.334;11.190;2023-07-28T01:28:03;8.50;99.90
16929;DHT22;8581;47.334;11.190;2023-07-28T01:30:35;8.60;99.90
16929;DHT22;8581;47.334;11.190;2023-07-28T01:33:07;8.70;99.90
16929;DHT22;8581;47.334;11.190;2023-07-28T01:35:38;8.70;99.90
16929;DHT22;8581;47.334;11.190;2023-07-28T01:38:10;8.70;99.90
16929;DHT22;8581;47.334;11.190;2023-07-28T01:40:41;8.70;99.90
16929;DHT22;8581;47.334;11.190;2023-07-28T01:43:13;8.70;99.90
16929;DHT22;8581;47.334;11.190;2023-07-28T01:45:45;8.60;99.90
16929;DHT22;8581;47.334;11.190;2023-07-28T01:48:16;8.60;99.90
16929;DHT22;8581;47.334;11.190;2023-07-28T01:50:48;8.70;99.90
16929;DHT22;8581;47.334;11.190;2023-07-28T01:53:19;8.60;99.90
16929;DHT22;8581;47.334;11.190;2023-07-28T01:55:51;8.50;99.90
16929;DHT22;8581;47.334;11.190;2023-07-28T01:58:23;8.60;99.90
16929;DHT22;8581;47.334;11.190;2023-07-28T02:00:54;8.50;99.90
16929;DHT22;8581;47.334;11.190;2023-07-28T02:03:26;8.60;99.90
16929;DHT22;8581;47.334;11.190;2023-07-28T02:05:57;8.70;99.90
16929;DHT22;8581;47.334;11.190;2023-07-28T02:08:29;8.60;99.90
16929;DHT22;8581;47.334;11.190;2023-07-28T02:11:00;8.60;99.90
16929;DHT22;8581;47.334;11.190;2023-07-28T02:13:32;8.60;99.90
16929;DHT22;8581;47.334;11.190;2023-07-28T02:16:04;8.60;99.90
16929;DHT22;8581;47.334;11.190;2023-07-28T02:18:36;8.50;99.90
16929;DHT22;8581;47.334;11.190;2023-07-28T02:21:08;8.60;99.90
16929;DHT22;8581;47.334;11.190;2023-07-28T02:23:40;8.80;99.90
16929;DHT22;8581;47.334;11.190;2023-07-28T02:26:11;8.70;99.90
16929;DHT22;8581;47.334;11.190;2023-07-28T02:28:43;8.60;99.90
16929;DHT22;8581;47.334;11.190;2023-07-28T02:31:15;8.60;99.90
16929;DHT22;8581;47.334;11.190;2023-07-28T02:33:46;8.50;99.90
16929;DHT22;8581;47.334;11.190;2023-07-28T02:36:18;8.40;99.90
16929;DHT22;8581;47.334;11.190;2023-07-28T02:38:49;8.40;99.90
16929;DHT22;8581;47.334;11.190;2023-07-28T02:41:21;8.50;99.90
16929;DHT22;8581;47.334;11.190;2023-07-28T02:43:53;8.50;99.90
16929;DHT22;8581;47.334;11.190;2023-07-28T02:46:24;8.60;99.90
16929;DHT22;8581;47.334;11.190;2023-07-28T02:48:56;8.50;99.90
16929;DHT22;8581;47.334;11.190;2023-07-28T02:51:27;8.60;99.90
16929;DHT22;8581;47.334;11.190;2023-07-28T02:53:59;8.60;99.90
16929;DHT22;8581;47.334;11.190;2023-07-28T02:56:31;8.70;99.90
16929;DHT22;8581;47.334;11.190;2023-07-28T02:59:03;8.70;99.90
16929;DHT22;8581;47.334;11.190;2023-07-28T03:01:34;8.80;99.90
16929;DHT22;8581;47.334;11.190;2023-07-28T03:04:05;8.70;99.90
16929;DHT22;8581;47.334;11.190;2023-07-28T03:06:37;8.70;99.90
16929;DHT22;8581;47.334;11.190;2023-07-28T03:09:08;8.80;99.90
16929;DHT22;8581;47.334;11.190;2023-07-28T03:11:42;8.90;99.90
16929;DHT22;8581;47.334;11.190;2023-07-28T03:14:12;9.00;99.90
16929;DHT22;8581;47.334;11.190;2023-07-28T03:16:43;9.00;99.90
16929;DHT22;8581;47.334;11.190;2023-07-28T03:19:15;9.00;99.90
16929;DHT22;8581;47.334;11.190;2023-07-28T03:21:47;9.00;99.90
16929;DHT22;8581;47.334;11.190;2023-07-28T03:24:18;9.10;99.90
16929;DHT22;8581;47.334;11.190;2023-07-28T03:26:50;9.20;99.90
16929;DHT22;8581;47.334;11.190;2023-07-28T03:29:21;9.20;99.90
16929;DHT22;8581;47.334;11.190;2023-07-28T03:31:53;9.20;99.90
16929;DHT22;8581;47.334;11.190;2023-07-28T03:34:25;9.20;99.90
16929;DHT22;8581;47.334;11.190;2023-07-28T03:36:56;9.30;99.90
16929;DHT22;8581;47.334;11.190;2023-07-28T03:39:28;9.30;99.90
16929;DHT22;8581;47.334;11.190;2023-07-28T03:41:59;9.40;99.90
16929;DHT22;8581;47.334;11.190;2023-07-28T03:44:31;9.40;99.90
16929;DHT22;8581;47.334;11.190;2023-07-28T03:47:03;9.50;99.90
16929;DHT22;8581;47.334;11.190;2023-07-28T03:49:34;9.50;99.90
16929;DHT22;8581;47.334;11.190;2023-07-28T03:52:06;9.60;99.90
16929;DHT22;8581;47.334;11.190;2023-07-28T03:54:38;9.60;99.90
16929;DHT22;8581;47.334;11.190;2023-07-28T03:57:09;9.90;99.90
16929;DHT22;8581;47.334;11.190;2023-07-28T03:59:41;10.10;99.90
16929;DHT22;8581;47.334;11.190;2023-07-28T04:02:12;10.00;99.90
16929;DHT22;8581;47.334;11.190;2023-07-28T04:04:44;10.00;99.90
16929;DHT22;8581;47.334;11.190;2023-07-28T04:07:15;10.10;99.90
16929;DHT22;8581;47.334;11.190;2023-07-28T04:09:47;10.20;99.90
16929;DHT22;8581;47.334;11.190;2023-07-28T04:12:19;10.30;99.90
16929;DHT22;8581;47.334;11.190;2023-07-28T04:14:50;10.30;99.90
16929;DHT22;8581;47.334;11.190;2023-07-28T04:17:22;10.60;99.90
16929;DHT22;8581;47.334;11.190;2023-07-28T04:19:53;10.60;99.90
16929;DHT22;8581;47.334;11.190;2023-07-28T04:22:25;10.70;99.90
16929;DHT22;8581;47.334;11.190;2023-07-28T04:24:57;10.80;99.90
16929;DHT22;8581;47.334;11.190;2023-07-28T04:27:28;10.80;99.90
16929;DHT22;8581;47.334;11.190;2023-07-28T04:30:00;10.70;99.90
16929;DHT22;8581;47.334;11.190;2023-07-28T04:32:31;10.80;99.90
16929;DHT22;8581;47.334;11.190;2023-07-28T04:35:04;10.90;99.90
16929;DHT22;8581;47.334;11.190;2023-07-28T04:37:35;10.80;99.90
16929;DHT22;8581;47.334;11.190;2023-07-28T04:40:08;11.00;99.90
16929;DHT22;8581;47.334;11.190;2023-07-28T04:42:39;10.90;99.90
16929;DHT22;8581;47.334;11.190;2023-07-28T04:45:11;11.00;99.90
16929;DHT22;8581;47.334;11.190;2023-07-28T04:47:43;11.00;99.90
16929;DHT22;8581;47.334;11.190;2023-07-28T04:50:14;11.10;99.90
16929;DHT22;8581;47.334;11.190;2023-07-28T04:52:46;11.30;99.90
16929;DHT22;8581;47.334;11.190;2023-07-28T04:55:17;11.40;99.90
16929;DHT22;8581;47.334;11.190;2023-07-28T04:57:49;11.40;99.90
16929;DHT22;8581;47.334;11.190;2023-07-28T05:00:21;11.30;99.90
16929;DHT22;8581;47.334;11.190;2023-07-28T05:02:52;11.20;99.90
16929;DHT22;8581;47.334;11.190;2023-07-28T05:05:24;11.30;99.90
16929;DHT22;8581;47.334;11.190;2023-07-28T05:07:55;11.30;99.90
16929;DHT22;8581;47.334;11.190;2023-07-28T05:10:27;11.50;99.90
16929;DHT22;8581;47.334;11.190;2023-07-28T05:12:59;11.70;99.90
16929;DHT22;8581;47.334;11.190;2023-07-28T05:15:30;12.00;99.90
16929;DHT22;8581;47.334;11.190;2023-07-28T05:18:02;12.10;99.90
16929;DHT22;8581;47.334;11.190;2023-07-28T05:20:33;12.50;99.90
16929;DHT22;8581;47.334;11.190;2023-07-28T05:23:05;12.60;99.90
16929;DHT22;8581;47.334;11.190;2023-07-28T05:25:37;13.00;99.90
16929;DHT22;8581;47.334;11.190;2023-07-28T05:28:08;13.00;99.90
16929;DHT22;8581;47.334;11.190;2023-07-28T05:30:40;13.00;99.90
16929;DHT22;8581;47.334;11.190;2023-07-28T05:33:11;13.00;99.90
16929;DHT22;8581;47.334;11.190;2023-07-28T05:35:43;13.20;99.90
16929;DHT22;8581;47.334;11.190;2023-07-28T05:38:14;13.20;99.90
16929;DHT22;8581;47.334;11.190;2023-07-28T05:40:46;13.20;99.90
16929;DHT22;8581;47.334;11.190;2023-07-28T05:43:18;13.40;99.90
16929;DHT22;8581;47.334;11.190;2023-07-28T05:45:49;13.40;99.90
16929;DHT22;8581;47.334;11.190;2023-07-28T05:48:21;13.50;99.90
16929;DHT22;8581;47.334;11.190;2023-07-28T05:50:52;13.70;99.90
16929;DHT22;8581;47.334;11.190;2023-07-28T05:53:24;13.90;99.90
16929;DHT22;8581;47.334;11.190;2023-07-28T05:55:56;13.60;99.90
16929;DHT22;8581;47.334;11.190;2023-07-28T05:58:27;13.70;99.90
16929;DHT22;8581;47.334;11.190;2023-07-28T06:00:59;13.60;99.90
16929;DHT22;8581;47.334;11.190;2023-07-28T06:03:30;13.60;99.90
16929;DHT22;8581;47.334;11.190;2023-07-28T06:06:02;13.60;99.90
16929;DHT22;8581;47.334;11.190;2023-07-28T06:08:34;13.50;99.90
16929;DHT22;8581;47.334;11.190;2023-07-28T06:11:05;13.80;99.90
16929;DHT22;8581;47.334;11.190;2023-07-28T06:13:37;13.70;99.90
16929;DHT22;8581;47.334;11.190;2023-07-28T06:16:08;13.70;99.90
16929;DHT22;8581;47.334;11.190;2023-07-28T06:18:40;13.80;99.90
16929;DHT22;8581;47.334;11.190;2023-07-28T06:21:12;13.80;99.90
16929;DHT22;8581;47.334;11.190;2023-07-28T06:23:43;14.00;99.90
16929;DHT22;8581;47.334;11.190;2023-07-28T06:26:15;14.20;99.90
16929;DHT22;8581;47.334;11.190;2023-07-28T06:28:46;14.00;99.90
16929;DHT22;8581;47.334;11.190;2023-07-28T06:31:18;14.10;99.90
16929;DHT22;8581;47.334;11.190;2023-07-28T06:33:49;14.10;99.90
16929;DHT22;8581;47.334;11.190;2023-07-28T06:36:21;14.30;99.90
16929;DHT22;8581;47.334;11.190;2023-07-28T06:38:53;14.30;99.90
16929;DHT22;8581;47.334;11.190;2023-07-28T06:41:24;14.40;99.90
16929;DHT22;8581;47.334;11.190;2023-07-28T06:43:56;14.40;99.90
16929;DHT22;8581;47.334;11.190;2023-07-28T06:46:28;14.90;99.90
16929;DHT22;8581;47.334;11.190;2023-07-28T06:48:59;15.20;99.90
16929;DHT22;8581;47.334;11.190;2023-07-28T06:51:31;14.90;99.90
16929;DHT22;8581;47.334;11.190;2023-07-28T06:54:02;15.00;99.90
16929;DHT22;8581;47.334;11.190;2023-07-28T06:56:34;15.20;99.90
16929;DHT22;8581;47.334;11.190;2023-07-28T06:59:06;15.30;99.90
16929;DHT22;8581;47.334;11.190;2023-07-28T07:01:37;15.30;99.90
16929;DHT22;8581;47.334;11.190;2023-07-28T07:04:09;15.60;99.90
16929;DHT22;8581;47.334;11.190;2023-07-28T07:06:40;15.90;99.90
16929;DHT22;8581;47.334;11.190;2023-07-28T07:09:12;16.00;99.90
16929;DHT22;8581;47.334;11.190;2023-07-28T07:11:44;16.20;99.90
16929;DHT22;8581;47.334;11.190;2023-07-28T07:14:16;16.40;99.90
16929;DHT22;8581;47.334;11.190;2023-07-28T07:16:48;16.70;99.90
16929;DHT22;8581;47.334;11.190;2023-07-28T07:19:19;16.70;99.90
16929;DHT22;8581;47.334;11.190;2023-07-28T07:21:51;16.80;99.90
16929;DHT22;8581;47.334;11.190;2023-07-28T07:24:22;16.60;99.90
16929;DHT22;8581;47.334;11.190;2023-07-28T07:26:54;16.40;99.90
16929;DHT22;8581;47.334;11.190;2023-07-28T07:29:25;16.20;99.90
16929;DHT22;8581;47.334;11.190;2023-07-28T07:31:57;16.20;99.90
16929;DHT22;8581;47.334;11.190;2023-07-28T07:34:29;16.10;99.90
16929;DHT22;8581;47.334;11.190;2023-07-28T07:37:00;16.20;99.90
16929;DHT22;8581;47.334;11.190;2023-07-28T07:39:32;16.30;99.90
16929;DHT22;8581;47.334;11.190;2023-07-28T07:42:04;16.50;99.90
16929;DHT22;8581;47.334;11.190;2023-07-28T07:44:36;16.60;99.90
16929;DHT22;8581;47.334;11.190;2023-07-28T07:47:13;16.80;99.90
16929;DHT22;8581;47.334;11.190;2023-07-28T07:49:44;16.90;99.90
16929;DHT22;8581;47.334;11.190;2023-07-28T07:52:15;16.90;99.90
16929;DHT22;8581;47.334;11.190;2023-07-28T07:54:47;17.20;99.90
16929;DHT22;8581;47.334;11.190;2023-07-28T07:57:19;17.30;99.90
16929;DHT22;8581;47.334;11.190;2023-07-28T07:59:50;17.30;99.90
16929;DHT22;8581;47.334;11.190;2023-07-28T08:02:22;17.50;99.90
16929;DHT22;8581;47.334;11.190;2023-07-28T08:04:53;17.60;99.90
16929;DHT22;8581;47.334;11.190;2023-07-28T08:07:25;17.70;99.90
16929;DHT22;8581;47.334;11.190;2023-07-28T08:09:57;17.80;99.90
16929;DHT22;8581;47.334;11.190;2023-07-28T08:12:29;18.00;99.90
16929;DHT22;8581;47.334;11.190;2023-07-28T08:15:06;18.20;99.90
16929;DHT22;8581;47.334;11.190;2023-07-28T08:17:38;18.30;99.90
16929;DHT22;8581;47.334;11.190;2023-07-28T08:20:09;18.40;99.90
16929;DHT22;8581;47.334;11.190;2023-07-28T08:22:41;18.50;99.90
16929;DHT22;8581;47.334;11.190;2023-07-28T08:25:13;18.60;99.90
16929;DHT22;8581;47.334;11.190;2023-07-28T08:27:44;18.60;99.90
16929;DHT22;8581;47.334;11.190;2023-07-28T08:30:16;18.70;99.90
16929;DHT22;8581;47.334;11.190;2023-07-28T08:32:47;18.90;99.90
16929;DHT22;8581;47.334;11.190;2023-07-28T08:35:19;19.20;99.90
16929;DHT22;8581;47.334;11.190;2023-07-28T08:37:51;19.40;99.90
16929;DHT22;8581;47.334;11.190;2023-07-28T08:40:22;19.60;99.90
16929;DHT22;8581;47.334;11.190;2023-07-28T08:42:54;19.50;99.90
16929;DHT22;8581;47.334;11.190;2023-07-28T08:45:26;19.50;99.90
16929;DHT22;8581;47.334;11.190;2023-07-28T08:47:57;19.50;99.90
16929;DHT22;8581;47.334;11.190;2023-07-28T08:50:39;19.40;99.90
16929;DHT22;8581;47.334;11.190;2023-07-28T08:53:11;19.60;99.90
16929;DHT22;8581;47.334;11.190;2023-07-28T08:55:43;19.50;99.90
16929;DHT22;8581;47.334;11.190;2023-07-28T08:58:16;19.50;99.90
16929;DHT22;8581;47.334;11.190;2023-07-28T09:00:47;19.60;99.90
16929;DHT22;8581;47.334;11.190;2023-07-28T09:03:18;19.70;99.90
16929;DHT22;8581;47.334;11.190;2023-07-28T09:05:50;19.90;99.90
16929;DHT22;8581;47.334;11.190;2023-07-28T09:08:22;19.90;99.90
16929;DHT22;8581;47.334;11.190;2023-07-28T09:10:53;19.90;99.90
16929;DHT22;8581;47.334;11.190;2023-07-28T09:13:26;20.00;99.90
16929;DHT22;8581;47.334;11.190;2023-07-28T09:15:57;20.40;99.90
16929;DHT22;8581;47.334;11.190;2023-07-28T09:18:29;20.80;99.90
16929;DHT22;8581;47.334;11.190;2023-07-28T09:21:00;21.10;99.90
16929;DHT22;8581;47.334;11.190;2023-07-28T09:23:32;21.40;99.90
16929;DHT22;8581;47.334;11.190;2023-07-28T09:26:04;21.40;99.90
16929;DHT22;8581;47.334;11.190;2023-07-28T09:28:37;21.40;99.90
16929;DHT22;8581;47.334;11.190;2023-07-28T09:31:08;21.80;99.90
16929;DHT22;8581;47.334;11.190;2023-07-28T09:33:39;22.00;99.90
16929;DHT22;8581;47.334;11.190;2023-07-28T09:36:13;22.50;99.90
16929;DHT22;8581;47.334;11.190;2023-07-28T09:38:43;22.70;99.90
16929;DHT22;8581;47.334;11.190;2023-07-28T09:41:14;22.60;99.90
16929;DHT22;8581;47.334;11.190;2023-07-28T09:43:46;22.30;99.90
16929;DHT22;8581;47.334;11.190;2023-07-28T09:46:17;22.30;99.90
16929;DHT22;8581;47.334;11.190;2023-07-28T09:48:50;22.80;99.90
16929;DHT22;8581;47.334;11.190;2023-07-28T09:51:21;23.00;99.90
16929;DHT22;8581;47.334;11.190;2023-07-28T09:53:53;22.70;99.90
16929;DHT22;8581;47.334;11.190;2023-07-28T09:56:28;22.50;99.90
16929;DHT22;8581;47.334;11.190;2023-07-28T09:58:56;22.50;99.90
16929;DHT22;8581;47.334;11.190;2023-07-28T10:01:27;22.90;99.90
16929;DHT22;8581;47.334;11.190;2023-07-28T10:03:59;24.10;99.90
16929;DHT22;8581;47.334;11.190;2023-07-28T10:06:30;25.10;99.90
16929;DHT22;8581;47.334;11.190;2023-07-28T10:09:02;25.70;99.90
16929;DHT22;8581;47.334;11.190;2023-07-28T10:11:34;25.70;99.90
16929;DHT22;8581;47.334;11.190;2023-07-28T10:14:05;26.80;99.90
16929;DHT22;8581;47.334;11.190;2023-07-28T10:16:37;27.70;99.90
16929;DHT22;8581;47.334;11.190;2023-07-28T10:19:08;28.20;99.90
16929;DHT22;8581;47.334;11.190;2023-07-28T10:21:40;29.50;99.90
16929;DHT22;8581;47.334;11.190;2023-07-28T10:24:12;29.80;99.20
16929;DHT22;8581;47.334;11.190;2023-07-28T10:26:43;30.80;97.80
16929;DHT22;8581;47.334;11.190;2023-07-28T10:29:16;31.20;95.00
16929;DHT22;8581;47.334;11.190;2023-07-28T10:31:51;30.90;94.60
16929;DHT22;8581;47.334;11.190;2023-07-28T10:34:22;31.20;94.70
16929;DHT22;8581;47.334;11.190;2023-07-28T10:36:57;31.00;93.90
16929;DHT22;8581;47.334;11.190;2023-07-28T10:39:28;30.70;94.30
16929;DHT22;8581;47.334;11.190;2023-07-28T10:42:04;31.10;91.80
16929;DHT22;8581;47.334;11.190;2023-07-28T10:44:36;30.00;92.50
16929;DHT22;8581;47.334;11.190;2023-07-28T10:47:08;29.00;92.50
16929;DHT22;8581;47.334;11.190;2023-07-28T10:49:39;28.80;94.70
16929;DHT22;8581;47.334;11.190;2023-07-28T10:52:11;28.60;95.90
16929;DHT22;8581;47.334;11.190;2023-07-28T10:54:42;28.00;97.50
16929;DHT22;8581;47.334;11.190;2023-07-28T10:57:14;29.10;95.50
16929;DHT22;8581;47.334;11.190;2023-07-28T10:59:46;30.70;93.90
16929;DHT22;8581;47.334;11.190;2023-07-28T11:02:17;30.50;94.20
16929;DHT22;8581;47.334;11.190;2023-07-28T11:04:49;31.20;93.30
16929;DHT22;8581;47.334;11.190;2023-07-28T11:07:21;31.10;94.80
16929;DHT22;8581;47.334;11.190;2023-07-28T11:09:52;30.00;93.10
16929;DHT22;8581;47.334;11.190;2023-07-28T11:12:24;28.20;94.40
16929;DHT22;8581;47.334;11.190;2023-07-28T11:14:55;27.30;95.20
16929;DHT22;8581;47.334;11.190;2023-07-28T11:17:27;27.00;96.20
16929;DHT22;8581;47.334;11.190;2023-07-28T11:19:59;26.70;96.40
16929;DHT22;8581;47.334;11.190;2023-07-28T11:22:30;26.90;96.50
16929;DHT22;8581;47.334;11.190;2023-07-28T11:25:05;27.00;96.40
16929;DHT22;8581;47.334;11.190;2023-07-28T11:27:33;27.10;95.00
16929;DHT22;8581;47.334;11.190;2023-07-28T11:30:07;27.20;94.90
16929;DHT22;8581;47.334;11.190;2023-07-28T11:32:38;27.40;96.00
16929;DHT22;8581;47.334;11.190;2023-07-28T11:35:10;28.10;93.40
16929;DHT22;8581;47.334;11.190;2023-07-28T11:37:42;28.60;91.70
16929;DHT22;8581;47.334;11.190;2023-07-28T11:40:14;28.60;92.60
16929;DHT22;8581;47.334;11.190;2023-07-28T11:42:45;28.80;92.90
16929;DHT22;8581;47.334;11.190;2023-07-28T11:45:17;29.10;90.80
16929;DHT22;8581;47.334;11.190;2023-07-28T11:47:59;29.90;91.60
16929;DHT22;8581;47.334;11.190;2023-07-28T11:50:37;30.00;90.50
16929;DHT22;8581;47.334;11.190;2023-07-28T11:53:06;30.00;92.80
16929;DHT22;8581;47.334;11.190;2023-07-28T11:55:38;29.20;94.80
16929;DHT22;8581;47.334;11.190;2023-07-28T11:58:09;28.00;96.70
16929;DHT22;8581;47.334;11.190;2023-07-28T12:00:41;26.90;98.60
16929;DHT22;8581;47.334;11.190;2023-07-28T12:03:13;26.60;99.60
16929;DHT22;8581;47.334;11.190;2023-07-28T12:06:03;25.70;99.90
16929;DHT22;8581;47.334;11.190;2023-07-28T12:08:35;25.20;99.90
16929;DHT22;8581;47.334;11.190;2023-07-28T12:11:10;25.10;99.90
16929;DHT22;8581;47.334;11.190;2023-07-28T12:13:47;24.90;99.90
16929;DHT22;8581;47.334;11.190;2023-07-28T12:19:02;23.40;99.90
16929;DHT22;8581;47.334;11.190;2023-07-28T12:21:33;22.80;99.90
16929;DHT22;8581;47.334;11.190;2023-07-28T12:24:05;22.80;99.90
16929;DHT22;8581;47.334;11.190;2023-07-28T12:26:36;23.10;99.90
16929;DHT22;8581;47.334;11.190;2023-07-28T12:29:08;23.20;99.90
16929;DHT22;8581;47.334;11.190;2023-07-28T12:31:40;23.30;99.90
16929;DHT22;8581;47.334;11.190;2023-07-28T12:34:11;23.60;99.90
16929;DHT22;8581;47.334;11.190;2023-07-28T12:36:43;23.50;99.90
16929;DHT22;8581;47.334;11.190;2023-07-28T12:39:14;23.50;99.90
16929;DHT22;8581;47.334;11.190;2023-07-28T12:41:46;23.50;99.90
16929;DHT22;8581;47.334;11.190;2023-07-28T12:44:20;23.40;99.90
16929;DHT22;8581;47.334;11.190;2023-07-28T12:46:51;23.70;99.90
16929;DHT22;8581;47.334;11.190;2023-07-28T12:49:23;24.70;99.90
16929;DHT22;8581;47.334;11.190;2023-07-28T12:51:55;25.80;99.90
16929;DHT22;8581;47.334;11.190;2023-07-28T12:54:27;27.10;99.90
16929;DHT22;8581;47.334;11.190;2023-07-28T12:57:02;27.60;99.90
16929;DHT22;8581;47.334;11.190;2023-07-28T12:59:38;29.50;98.50
16929;DHT22;8581;47.334;11.190;2023-07-28T13:02:09;31.40;97.40
16929;DHT22;8581;47.334;11.190;2023-07-28T13:04:41;32.70;95.60
16929;DHT22;8581;47.334;11.190;2023-07-28T13:07:13;33.70;94.00
16929;DHT22;8581;47.334;11.190;2023-07-28T13:09:44;34.80;92.80
16929;DHT22;8581;47.334;11.190;2023-07-28T13:12:16;34.60;91.50
16929;DHT22;8581;47.334;11.190;2023-07-28T13:14:47;34.40;91.40
16929;DHT22;8581;47.334;11.190;2023-07-28T13:17:19;34.70;91.50
16929;DHT22;8581;47.334;11.190;2023-07-28T13:19:51;35.50;89.80
16929;DHT22;8581;47.334;11.190;2023-07-28T13:22:22;35.80;88.00
16929;DHT22;8581;47.334;11.190;2023-07-28T13:24:54;34.80;89.70
16929;DHT22;8581;47.334;11.190;2023-07-28T13:27:25;33.60;89.80
16929;DHT22;8581;47.334;11.190;2023-07-28T13:29:57;31.30;91.50
16929;DHT22;8581;47.334;11.190;2023-07-28T13:32:29;29.50;94.00
16929;DHT22;8581;47.334;11.190;2023-07-28T13:35:00;29.10;94.40
16929;DHT22;8581;47.334;11.190;2023-07-28T13:37:32;28.20;95.90
16929;DHT22;8581;47.334;11.190;2023-07-28T13:40:04;26.90;97.20
16929;DHT22;8581;47.334;11.190;2023-07-28T13:42:36;25.70;98.80
16929;DHT22;8581;47.334;11.190;2023-07-28T13:45:09;25.50;99.70
16929;DHT22;8581;47.334;11.190;2023-07-28T13:47:41;25.40;99.60
16929;DHT22;8581;47.334;11.190;2023-07-28T13:50:12;24.80;99.90
16929;DHT22;8581;47.334;11.190;2023-07-28T13:52:44;24.20;99.90
16929;DHT22;8581;47.334;11.190;2023-07-28T13:55:15;24.10;99.90
16929;DHT22;8581;47.334;11.190;2023-07-28T13:57:47;24.20;99.90
16929;DHT22;8581;47.334;11.190;2023-07-28T14:00:19;24.00;99.90
16929;DHT22;8581;47.334;11.190;2023-07-28T14:02:50;24.30;99.90
16929;DHT22;8581;47.334;11.190;2023-07-28T14:05:22;24.20;99.90
16929;DHT22;8581;47.334;11.190;2023-07-28T14:07:53;23.80;99.90
16929;DHT22;8581;47.334;11.190;2023-07-28T14:10:25;24.00;99.90
16929;DHT22;8581;47.334;11.190;2023-07-28T14:12:57;24.90;99.90
16929;DHT22;8581;47.334;11.190;2023-07-28T14:15:28;28.10;99.90
16929;DHT22;8581;47.334;11.190;2023-07-28T14:18:00;30.60;97.70
16929;DHT22;8581;47.334;11.190;2023-07-28T14:20:31;33.10;93.90
16929;DHT22;8581;47.334;11.190;2023-07-28T14:23:08;34.40;91.70
16929;DHT22;8581;47.334;11.190;2023-07-28T14:25:35;34.70;91.10
16929;DHT22;8581;47.334;11.190;2023-07-28T14:28:06;35.40;90.60
16929;DHT22;8581;47.334;11.190;2023-07-28T14:30:38;35.30;88.10
16929;DHT22;8581;47.334;11.190;2023-07-28T14:33:09;35.60;86.30
16929;DHT22;8581;47.334;11.190;2023-07-28T14:35:44;37.00;85.00
16929;DHT22;8581;47.334;11.190;2023-07-28T14:38:15;36.80;84.00
16929;DHT22;8581;47.334;11.190;2023-07-28T14:40:47;36.80;83.20
16929;DHT22;8581;47.334;11.190;2023-07-28T14:43:19;36.00;84.10
16929;DHT22;8581;47.334;11.190;2023-07-28T14:45:50;33.40;88.10
16929;DHT22;8581;47.334;11.190;2023-07-28T14:48:22;31.00;90.70
16929;DHT22;8581;47.334;11.190;2023-07-28T14:50:54;30.00;92.40
16929;DHT22;8581;47.334;11.190;2023-07-28T14:53:29;29.40;93.00
16929;DHT22;8581;47.334;11.190;2023-07-28T14:56:00;31.40;93.40
16929;DHT22;8581;47.334;11.190;2023-07-28T14:58:31;32.80;91.90
16929;DHT22;8581;47.334;11.190;2023-07-28T15:01:03;34.60;89.80
16929;DHT22;8581;47.334;11.190;2023-07-28T15:03:34;36.60;82.80
16929;DHT22;8581;47.334;11.190;2023-07-28T15:06:06;37.30;82.00
16929;DHT22;8581;47.334;11.190;2023-07-28T15:08:38;37.10;83.90
16929;DHT22;8581;47.334;11.190;2023-07-28T15:11:09;38.00;81.50
16929;DHT22;8581;47.334;11.190;2023-07-28T15:13:41;38.90;80.30
16929;DHT22;8581;47.334;11.190;2023-07-28T15:16:12;38.80;77.40
16929;DHT22;8581;47.334;11.190;2023-07-28T15:18:44;38.60;76.80
16929;DHT22;8581;47.334;11.190;2023-07-28T15:21:16;39.00;76.80
16929;DHT22;8581;47.334;11.190;2023-07-28T15:23:52;38.70;75.70
16929;DHT22;8581;47.334;11.190;2023-07-28T15:26:19;37.60;78.60
16929;DHT22;8581;47.334;11.190;2023-07-28T15:28:50;37.60;78.10
16929;DHT22;8581;47.334;11.190;2023-07-28T15:31:22;37.70;78.30
16929;DHT22;8581;47.334;11.190;2023-07-28T15:33:54;38.80;78.40
16929;DHT22;8581;47.334;11.190;2023-07-28T15:36:25;38.00;76.90
16929;DHT22;8581;47.334;11.190;2023-07-28T15:38:57;37.40;77.70
16929;DHT22;8581;47.334;11.190;2023-07-28T15:41:28;38.20;77.40
16929;DHT22;8581;47.334;11.190;2023-07-28T15:44:00;37.80;75.80
16929;DHT22;8581;47.334;11.190;2023-07-28T15:46:31;37.60;77.10
16929;DHT22;8581;47.334;11.190;2023-07-28T15:49:03;38.00;75.10
16929;DHT22;8581;47.334;11.190;2023-07-28T15:51:35;38.40;74.40
16929;DHT22;8581;47.334;11.190;2023-07-28T15:54:06;39.60;74.10
16929;DHT22;8581;47.334;11.190;2023-07-28T15:56:38;40.00;73.90
16929;DHT22;8581;47.334;11.190;2023-07-28T15:59:09;38.60;74.30
16929;DHT22;8581;47.334;11.190;2023-07-28T16:01:41;37.70;75.40
16929;DHT22;8581;47.334;11.190;2023-07-28T16:04:13;36.80;77.20
16929;DHT22;8581;47.334;11.190;2023-07-28T16:06:44;35.40;80.50
16929;DHT22;8581;47.334;11.190;2023-07-28T16:09:16;35.90;79.40